sensor_id;sensor_type;location;lat;lon;timestamp;temperature;humidity
52471;DHT22;38382;53.160;7.026;2024-01-10T00:02:06;-6.00;99.90
52471;DHT22;38382;53.160;7.026;2024-01-10T00:04:32;-3.60;99.90
52471;DHT22;38382;53.160;7.026;2024-01-10T00:06:58;-6.10;99.90
52471;DHT22;38382;53.160;7.026;2024-01-10T00:09:24;-6.10;99.90
52471;DHT22;38382;53.160;7.026;2024-01-10T00:11:49;-6.00;99.90
52471;DHT22;38382;53.160;7.026;2024-01-10T00:14:16;-4.90;99.90
52471;DHT22;38382;53.160;7.026;2024-01-10T00:16:42;-6.00;99.90
52471;DHT22;38382;53.160;7.026;2024-01-10T00:19:07;-6.10;99.90
52471;DHT22;38382;53.160;7.026;2024-01-10T00:21:33;-6.10;99.90
52471;DHT22;38382;53.160;7.026;2024-01-10T00:24:00;-6.10;99.90
52471;DHT22;38382;53.160;7.026;2024-01-10T00:26:26;-6.10;99.90
52471;DHT22;38382;53.160;7.026;2024-01-10T00:28:53;-6.30;99.90
52471;DHT22;38382;53.160;7.026;2024-01-10T00:31:19;-6.20;99.90
52471;DHT22;38382;53.160;7.026;2024-01-10T00:33:48;-6.20;99.90
52471;DHT22;38382;53.160;7.026;2024-01-10T00:36:13;-6.10;99.90
52471;DHT22;38382;53.160;7.026;2024-01-10T00:38:39;-6.10;99.90
52471;DHT22;38382;53.160;7.026;2024-01-10T00:41:05;-6.10;99.90
52471;DHT22;38382;53.160;7.026;2024-01-10T00:43:31;-6.20;99.90
52471;DHT22;38382;53.160;7.026;2024-01-10T00:45:57;-6.10;99.90
52471;DHT22;38382;53.160;7.026;2024-01-10T00:48:23;-6.20;99.90
52471;DHT22;38382;53.160;7.026;2024-01-10T00:50:48;-6.20;99.90
52471;DHT22;38382;53.160;7.026;2024-01-10T00:53:14;-6.20;99.90
52471;DHT22;38382;53.160;7.026;2024-01-10T00:55:40;-6.30;99.90
52471;DHT22;38382;53.160;7.026;2024-01-10T00:58:05;-4.20;99.90
52471;DHT22;38382;53.160;7.026;2024-01-10T01:00:32;-6.30;99.90
52471;DHT22;38382;53.160;7.026;2024-01-10T01:02:57;-6.30;99.90
52471;DHT22;38382;53.160;7.026;2024-01-10T01:05:23;-6.30;99.90
52471;DHT22;38382;53.160;7.026;2024-01-10T01:07:49;-6.30;99.90
52471;DHT22;38382;53.160;7.026;2024-01-10T01:10:14;-6.30;99.90
52471;DHT22;38382;53.160;7.026;2024-01-10T01:12:40;-6.40;99.90
52471;DHT22;38382;53.160;7.026;2024-01-10T01:15:06;-6.30;99.90
52471;DHT22;38382;53.160;7.026;2024-01-10T01:17:33;-6.30;99.90
52471;DHT22;38382;53.160;7.026;2024-01-10T01:20:00;-6.30;99.90
52471;DHT22;38382;53.160;7.026;2024-01-10T01:22:26;-6.30;99.90
52471;DHT22;38382;53.160;7.026;2024-01-10T01:24:52;-6.30;99.90
52471;DHT22;38382;53.160;7.026;2024-01-10T01:27:17;-6.40;99.90
52471;DHT22;38382;53.160;7.026;2024-01-10T01:29:43;-6.50;99.90
52471;DHT22;38382;53.160;7.026;2024-01-10T01:32:09;-6.30;99.90
52471;DHT22;38382;53.160;7.026;2024-01-10T01:34:34;-6.40;99.90
52471;DHT22;38382;53.160;7.026;2024-01-10T01:37:00;-6.30;99.90
52471;DHT22;38382;53.160;7.026;2024-01-10T01:39:26;-6.40;99.90
52471;DHT22;38382;53.160;7.026;2024-01-10T01:41:52;-6.40;99.90
52471;DHT22;38382;53.160;7.026;2024-01-10T01:44:18;-6.40;99.90
52471;DHT22;38382;53.160;7.026;2024-01-10T01:46:44;-6.50;99.90
52471;DHT22;38382;53.160;7.026;2024-01-10T01:49:11;-6.50;99.90
52471;DHT22;38382;53.160;7.026;2024-01-10T01:51:37;-6.30;99.90
52471;DHT22;38382;53.160;7.026;2024-01-10T01:54:06;-6.30;99.90
52471;DHT22;38382;53.160;7.026;2024-01-10T01:56:34;-6.30;99.90
52471;DHT22;38382;53.160;7.026;2024-01-10T01:59:02;-5.00;99.90
52471;DHT22;38382;53.160;7.026;2024-01-10T02:01:28;-6.20;99.90
52471;DHT22;38382;53.160;7.026;2024-01-10T02:03:55;-6.20;99.90
52471;DHT22;38382;53.160;7.026;2024-01-10T02:06:21;-6.20;99.90
52471;DHT22;38382;53.160;7.026;2024-01-10T02:08:46;-6.10;99.90
52471;DHT22;38382;53.160;7.026;2024-01-10T02:11:12;-6.10;99.90
52471;DHT22;38382;53.160;7.026;2024-01-10T02:13:38;-6.00;99.90
52471;DHT22;38382;53.160;7.026;2024-01-10T02:16:04;-6.00;99.90
52471;DHT22;38382;53.160;7.026;2024-01-10T02:18:30;-5.90;99.90
52471;DHT22;38382;53.160;7.026;2024-01-10T02:20:56;-6.00;99.90
52471;DHT22;38382;53.160;7.026;2024-01-10T02:23:23;-5.90;99.90
52471;DHT22;38382;53.160;7.026;2024-01-10T02:25:49;-5.90;99.90
52471;DHT22;38382;53.160;7.026;2024-01-10T02:28:15;-6.00;99.90
52471;DHT22;38382;53.160;7.026;2024-01-10T02:30:40;-6.00;99.90
52471;DHT22;38382;53.160;7.026;2024-01-10T02:33:06;-6.00;99.90
52471;DHT22;38382;53.160;7.026;2024-01-10T02:35:32;-3.70;99.90
52471;DHT22;38382;53.160;7.026;2024-01-10T02:37:59;-6.00;99.90
52471;DHT22;38382;53.160;7.026;2024-01-10T02:40:25;-6.20;99.90
52471;DHT22;38382;53.160;7.026;2024-01-10T02:42:51;-6.00;99.90
52471;DHT22;38382;53.160;7.026;2024-01-10T02:45:17;-6.00;99.90
52471;DHT22;38382;53.160;7.026;2024-01-10T02:47:44;-4.20;99.90
52471;DHT22;38382;53.160;7.026;2024-01-10T02:50:10;-6.00;99.90
52471;DHT22;38382;53.160;7.026;2024-01-10T02:52:35;-6.00;99.90
52471;DHT22;38382;53.160;7.026;2024-01-10T02:55:01;-6.10;99.90
52471;DHT22;38382;53.160;7.026;2024-01-10T02:57:27;-6.10;99.90
52471;DHT22;38382;53.160;7.026;2024-01-10T02:59:52;-6.10;99.90
52471;DHT22;38382;53.160;7.026;2024-01-10T03:02:18;-6.10;99.90
52471;DHT22;38382;53.160;7.026;2024-01-10T03:04:44;-6.10;99.90
52471;DHT22;38382;53.160;7.026;2024-01-10T03:07:10;-6.10;99.90
52471;DHT22;38382;53.160;7.026;2024-01-10T03:09:36;-4.10;99.90
52471;DHT22;38382;53.160;7.026;2024-01-10T03:12:02;-6.10;99.90
52471;DHT22;38382;53.160;7.026;2024-01-10T03:14:28;-6.00;99.90
52471;DHT22;38382;53.160;7.026;2024-01-10T03:16:53;-6.10;99.90
52471;DHT22;38382;53.160;7.026;2024-01-10T03:19:19;-6.00;99.90
52471;DHT22;38382;53.160;7.026;2024-01-10T03:21:45;-6.10;99.90
52471;DHT22;38382;53.160;7.026;2024-01-10T03:24:10;-5.90;99.90
52471;DHT22;38382;53.160;7.026;2024-01-10T03:26:36;-6.00;99.90
52471;DHT22;38382;53.160;7.026;2024-01-10T03:29:02;-3.80;99.90
52471;DHT22;38382;53.160;7.026;2024-01-10T03:31:29;-6.10;99.90
52471;DHT22;38382;53.160;7.026;2024-01-10T03:33:58;-6.00;99.90
52471;DHT22;38382;53.160;7.026;2024-01-10T03:36:24;-6.00;99.90
52471;DHT22;38382;53.160;7.026;2024-01-10T03:38:50;-6.00;99.90
52471;DHT22;38382;53.160;7.026;2024-01-10T03:41:17;-6.00;99.90
52471;DHT22;38382;53.160;7.026;2024-01-10T03:43:43;-5.90;99.90
52471;DHT22;38382;53.160;7.026;2024-01-10T03:46:09;-6.00;99.90
52471;DHT22;38382;53.160;7.026;2024-01-10T03:48:35;-6.30;99.90
52471;DHT22;38382;53.160;7.026;2024-01-10T03:51:02;-6.00;99.90
52471;DHT22;38382;53.160;7.026;2024-01-10T03:53:28;-6.10;99.90
52471;DHT22;38382;53.160;7.026;2024-01-10T03:55:54;-6.10;99.90
52471;DHT22;38382;53.160;7.026;2024-01-10T03:58:20;-6.10;99.90
52471;DHT22;38382;53.160;7.026;2024-01-10T04:00:46;-6.10;99.90
52471;DHT22;38382;53.160;7.026;2024-01-10T04:03:12;-6.10;99.90
52471;DHT22;38382;53.160;7.026;2024-01-10T04:05:37;-6.10;99.90
52471;DHT22;38382;53.160;7.026;2024-01-10T04:08:03;-6.10;99.90
52471;DHT22;38382;53.160;7.026;2024-01-10T04:10:30;-6.00;99.90
52471;DHT22;38382;53.160;7.026;2024-01-10T04:12:56;-6.10;99.90
52471;DHT22;38382;53.160;7.026;2024-01-10T04:15:21;-6.10;99.90
52471;DHT22;38382;53.160;7.026;2024-01-10T04:17:48;-6.20;99.90
52471;DHT22;38382;53.160;7.026;2024-01-10T04:20:13;-6.10;99.90
52471;DHT22;38382;53.160;7.026;2024-01-10T04:22:39;-6.20;99.90
52471;DHT22;38382;53.160;7.026;2024-01-10T04:25:06;-6.20;99.90
52471;DHT22;38382;53.160;7.026;2024-01-10T04:27:32;-6.20;99.90
52471;DHT22;38382;53.160;7.026;2024-01-10T04:29:58;-6.50;99.90
52471;DHT22;38382;53.160;7.026;2024-01-10T04:32:24;-6.40;99.90
52471;DHT22;38382;53.160;7.026;2024-01-10T04:34:50;-6.30;99.90
52471;DHT22;38382;53.160;7.026;2024-01-10T04:37:16;-6.40;99.90
52471;DHT22;38382;53.160;7.026;2024-01-10T04:39:41;-6.40;99.90
52471;DHT22;38382;53.160;7.026;2024-01-10T04:42:10;-6.30;99.90
52471;DHT22;38382;53.160;7.026;2024-01-10T04:44:36;-6.30;99.90
52471;DHT22;38382;53.160;7.026;2024-01-10T04:47:03;-6.40;99.90
52471;DHT22;38382;53.160;7.026;2024-01-10T04:49:29;-6.30;99.90
52471;DHT22;38382;53.160;7.026;2024-01-10T04:51:54;-6.30;99.90
52471;DHT22;38382;53.160;7.026;2024-01-10T04:54:20;-6.40;99.90
52471;DHT22;38382;53.160;7.026;2024-01-10T04:56:46;-6.40;99.90
52471;DHT22;38382;53.160;7.026;2024-01-10T04:59:12;-6.30;99.90
52471;DHT22;38382;53.160;7.026;2024-01-10T05:01:38;-4.50;99.90
52471;DHT22;38382;53.160;7.026;2024-01-10T05:04:04;-6.40;99.90
52471;DHT22;38382;53.160;7.026;2024-01-10T05:06:29;-6.30;99.90
52471;DHT22;38382;53.160;7.026;2024-01-10T05:08:55;-6.50;99.90
52471;DHT22;38382;53.160;7.026;2024-01-10T05:11:25;-6.60;99.90
52471;DHT22;38382;53.160;7.026;2024-01-10T05:13:53;-6.40;99.90
52471;DHT22;38382;53.160;7.026;2024-01-10T05:16:19;-6.40;99.90
52471;DHT22;38382;53.160;7.026;2024-01-10T05:18:44;-6.50;99.90
52471;DHT22;38382;53.160;7.026;2024-01-10T05:21:10;-4.00;99.90
52471;DHT22;38382;53.160;7.026;2024-01-10T05:23:36;-6.50;99.90
52471;DHT22;38382;53.160;7.026;2024-01-10T05:26:04;-6.50;99.90
52471;DHT22;38382;53.160;7.026;2024-01-10T05:28:30;-6.40;99.90
52471;DHT22;38382;53.160;7.026;2024-01-10T05:30:55;-6.50;99.90
52471;DHT22;38382;53.160;7.026;2024-01-10T05:33:21;-6.40;99.90
52471;DHT22;38382;53.160;7.026;2024-01-10T05:35:47;-6.50;99.90
52471;DHT22;38382;53.160;7.026;2024-01-10T05:38:13;-6.40;99.90
52471;DHT22;38382;53.160;7.026;2024-01-10T05:40:38;-6.40;99.90
52471;DHT22;38382;53.160;7.026;2024-01-10T05:43:04;-6.40;99.90
52471;DHT22;38382;53.160;7.026;2024-01-10T05:45:30;-6.40;99.90
52471;DHT22;38382;53.160;7.026;2024-01-10T05:47:56;-6.30;99.90
52471;DHT22;38382;53.160;7.026;2024-01-10T05:50:22;-6.30;99.90
52471;DHT22;38382;53.160;7.026;2024-01-10T05:52:48;-6.30;99.90
52471;DHT22;38382;53.160;7.026;2024-01-10T05:55:14;-6.40;99.90
52471;DHT22;38382;53.160;7.026;2024-01-10T05:57:39;-6.20;99.90
52471;DHT22;38382;53.160;7.026;2024-01-10T06:00:06;-6.40;99.90
52471;DHT22;38382;53.160;7.026;2024-01-10T06:02:41;-6.30;99.90
52471;DHT22;38382;53.160;7.026;2024-01-10T06:05:08;-6.30;99.90
52471;DHT22;38382;53.160;7.026;2024-01-10T06:07:37;-6.30;99.90
52471;DHT22;38382;53.160;7.026;2024-01-10T06:10:04;-6.20;99.90
52471;DHT22;38382;53.160;7.026;2024-01-10T06:12:30;-6.30;99.90
52471;DHT22;38382;53.160;7.026;2024-01-10T06:14:56;-6.60;99.90
52471;DHT22;38382;53.160;7.026;2024-01-10T06:17:23;-6.30;99.90
52471;DHT22;38382;53.160;7.026;2024-01-10T06:19:49;-6.30;99.90
52471;DHT22;38382;53.160;7.026;2024-01-10T06:22:15;-6.40;99.90
52471;DHT22;38382;53.160;7.026;2024-01-10T06:24:44;-6.60;99.90
52471;DHT22;38382;53.160;7.026;2024-01-10T06:27:11;-6.40;99.90
52471;DHT22;38382;53.160;7.026;2024-01-10T06:29:37;-5.60;99.90
52471;DHT22;38382;53.160;7.026;2024-01-10T06:32:06;-6.40;99.90
52471;DHT22;38382;53.160;7.026;2024-01-10T06:34:33;-6.50;99.90
52471;DHT22;38382;53.160;7.026;2024-01-10T06:36:59;-6.50;99.90
52471;DHT22;38382;53.160;7.026;2024-01-10T06:39:25;-6.40;99.90
52471;DHT22;38382;53.160;7.026;2024-01-10T06:41:51;-6.50;99.90
52471;DHT22;38382;53.160;7.026;2024-01-10T06:44:17;-6.50;99.90
52471;DHT22;38382;53.160;7.026;2024-01-10T06:46:44;-6.40;99.90
52471;DHT22;38382;53.160;7.026;2024-01-10T06:49:10;-6.40;99.90
52471;DHT22;38382;53.160;7.026;2024-01-10T06:51:35;-6.40;99.90
52471;DHT22;38382;53.160;7.026;2024-01-10T06:54:01;-6.50;99.90
52471;DHT22;38382;53.160;7.026;2024-01-10T06:56:31;-5.00;99.90
52471;DHT22;38382;53.160;7.026;2024-01-10T06:58:57;-6.50;99.90
52471;DHT22;38382;53.160;7.026;2024-01-10T07:01:23;-4.50;99.90
52471;DHT22;38382;53.160;7.026;2024-01-10T07:06:15;-6.40;99.90
52471;DHT22;38382;53.160;7.026;2024-01-10T07:08:41;-4.10;99.90
52471;DHT22;38382;53.160;7.026;2024-01-10T07:11:10;-6.50;99.90
52471;DHT22;38382;53.160;7.026;2024-01-10T07:13:40;-6.50;99.90
52471;DHT22;38382;53.160;7.026;2024-01-10T07:16:07;-6.50;99.90
52471;DHT22;38382;53.160;7.026;2024-01-10T07:18:32;-6.50;99.90
52471;DHT22;38382;53.160;7.026;2024-01-10T07:21:00;-6.50;99.90
52471;DHT22;38382;53.160;7.026;2024-01-10T07:23:26;-4.40;99.90
52471;DHT22;38382;53.160;7.026;2024-01-10T07:25:52;-4.30;99.90
52471;DHT22;38382;53.160;7.026;2024-01-10T07:28:18;-6.60;99.90
52471;DHT22;38382;53.160;7.026;2024-01-10T07:30:45;-6.50;99.90
52471;DHT22;38382;53.160;7.026;2024-01-10T07:33:12;-6.50;99.90
52471;DHT22;38382;53.160;7.026;2024-01-10T07:39:21;-6.50;99.90
52471;DHT22;38382;53.160;7.026;2024-01-10T07:45:48;-6.90;99.90
52471;DHT22;38382;53.160;7.026;2024-01-10T07:53:43;-6.40;99.90
52471;DHT22;38382;53.160;7.026;2024-01-10T07:56:09;-6.50;99.90
52471;DHT22;38382;53.160;7.026;2024-01-10T08:01:03;-6.40;99.90
52471;DHT22;38382;53.160;7.026;2024-01-10T08:03:30;-4.80;99.90
52471;DHT22;38382;53.160;7.026;2024-01-10T08:08:22;-6.40;99.90
52471;DHT22;38382;53.160;7.026;2024-01-10T08:10:48;-6.40;99.90
52471;DHT22;38382;53.160;7.026;2024-01-10T08:13:13;-6.30;99.90
52471;DHT22;38382;53.160;7.026;2024-01-10T08:15:39;-4.00;99.90
52471;DHT22;38382;53.160;7.026;2024-01-10T08:18:05;-6.30;99.90
52471;DHT22;38382;53.160;7.026;2024-01-10T08:20:33;-4.40;99.90
52471;DHT22;38382;53.160;7.026;2024-01-10T08:25:24;-6.10;99.90
52471;DHT22;38382;53.160;7.026;2024-01-10T08:27:51;-6.00;99.90
52471;DHT22;38382;53.160;7.026;2024-01-10T08:30:19;-6.50;99.90
52471;DHT22;38382;53.160;7.026;2024-01-10T08:32:47;-6.10;99.90
52471;DHT22;38382;53.160;7.026;2024-01-10T08:35:13;-3.20;99.90
52471;DHT22;38382;53.160;7.026;2024-01-10T08:37:38;-6.00;99.90
52471;DHT22;38382;53.160;7.026;2024-01-10T08:40:09;-6.00;99.90
52471;DHT22;38382;53.160;7.026;2024-01-10T08:42:38;-5.70;99.90
52471;DHT22;38382;53.160;7.026;2024-01-10T08:45:04;-3.20;99.90
52471;DHT22;38382;53.160;7.026;2024-01-10T08:47:33;-5.80;99.90
52471;DHT22;38382;53.160;7.026;2024-01-10T08:53:45;-5.20;99.90
52471;DHT22;38382;53.160;7.026;2024-01-10T08:56:23;-5.70;99.90
52471;DHT22;38382;53.160;7.026;2024-01-10T08:58:49;-4.10;99.90
52471;DHT22;38382;53.160;7.026;2024-01-10T09:01:15;-2.80;99.90
52471;DHT22;38382;53.160;7.026;2024-01-10T09:03:41;-6.10;99.90
52471;DHT22;38382;53.160;7.026;2024-01-10T09:06:07;-4.80;99.90
52471;DHT22;38382;53.160;7.026;2024-01-10T09:08:35;-5.40;99.90
52471;DHT22;38382;53.160;7.026;2024-01-10T09:13:28;-3.20;99.90
52471;DHT22;38382;53.160;7.026;2024-01-10T09:15:55;-5.40;99.90
52471;DHT22;38382;53.160;7.026;2024-01-10T09:18:21;-5.80;99.90
52471;DHT22;38382;53.160;7.026;2024-01-10T09:20:46;-2.30;99.90
52471;DHT22;38382;53.160;7.026;2024-01-10T09:23:19;-5.10;99.90
52471;DHT22;38382;53.160;7.026;2024-01-10T09:25:44;-6.90;99.90
52471;DHT22;38382;53.160;7.026;2024-01-10T09:41:49;-4.70;99.90
52471;DHT22;38382;53.160;7.026;2024-01-10T09:44:29;-4.50;99.90
52471;DHT22;38382;53.160;7.026;2024-01-10T09:46:55;-4.60;99.90
52471;DHT22;38382;53.160;7.026;2024-01-10T09:49:21;-2.80;99.90
52471;DHT22;38382;53.160;7.026;2024-01-10T09:51:48;-1.90;99.90
52471;DHT22;38382;53.160;7.026;2024-01-10T09:54:15;-2.60;99.90
52471;DHT22;38382;53.160;7.026;2024-01-10T09:56:42;-2.80;99.90
52471;DHT22;38382;53.160;7.026;2024-01-10T09:59:08;-4.50;99.90
52471;DHT22;38382;53.160;7.026;2024-01-10T10:01:39;-2.10;99.90
52471;DHT22;38382;53.160;7.026;2024-01-10T10:04:07;-1.60;99.90
52471;DHT22;38382;53.160;7.026;2024-01-10T10:06:35;-2.30;99.90
52471;DHT22;38382;53.160;7.026;2024-01-10T10:09:00;-3.80;99.90
52471;DHT22;38382;53.160;7.026;2024-01-10T10:11:26;-3.70;99.90
52471;DHT22;38382;53.160;7.026;2024-01-10T10:13:52;-3.60;99.90
52471;DHT22;38382;53.160;7.026;2024-01-10T10:16:25;-3.30;99.90
52471;DHT22;38382;53.160;7.026;2024-01-10T10:18:54;-3.30;99.90
52471;DHT22;38382;53.160;7.026;2024-01-10T10:21:27;-3.10;99.90
52471;DHT22;38382;53.160;7.026;2024-01-10T10:24:00;-1.00;99.90
52471;DHT22;38382;53.160;7.026;2024-01-10T10:26:27;-0.60;99.90
52471;DHT22;38382;53.160;7.026;2024-01-10T10:28:55;-2.80;99.90
52471;DHT22;38382;53.160;7.026;2024-01-10T10:31:21;-1.90;99.90
52471;DHT22;38382;53.160;7.026;2024-01-10T10:33:49;-0.80;99.90
52471;DHT22;38382;53.160;7.026;2024-01-10T10:36:19;-2.30;99.90
52471;DHT22;38382;53.160;7.026;2024-01-10T10:38:49;-1.00;99.90
52471;DHT22;38382;53.160;7.026;2024-01-10T10:41:15;0.50;99.90
52471;DHT22;38382;53.160;7.026;2024-01-10T10:43:41;-1.50;99.90
52471;DHT22;38382;53.160;7.026;2024-01-10T10:46:09;-1.80;99.90
52471;DHT22;38382;53.160;7.026;2024-01-10T10:48:36;-1.60;99.90
52471;DHT22;38382;53.160;7.026;2024-01-10T10:51:39;-1.70;99.90
52471;DHT22;38382;53.160;7.026;2024-01-10T10:54:05;-1.40;99.90
52471;DHT22;38382;53.160;7.026;2024-01-10T10:56:33;-1.00;99.90
52471;DHT22;38382;53.160;7.026;2024-01-10T10:59:00;0.80;99.90
52471;DHT22;38382;53.160;7.026;2024-01-10T11:01:27;1.00;99.90
52471;DHT22;38382;53.160;7.026;2024-01-10T11:03:55;1.10;99.90
52471;DHT22;38382;53.160;7.026;2024-01-10T11:06:21;1.30;99.90
52471;DHT22;38382;53.160;7.026;2024-01-10T11:08:52;1.30;99.90
52471;DHT22;38382;53.160;7.026;2024-01-10T11:25:18;-0.10;99.90
52471;DHT22;38382;53.160;7.026;2024-01-10T11:27:45;1.50;99.90
52471;DHT22;38382;53.160;7.026;2024-01-10T11:30:13;1.10;99.90
52471;DHT22;38382;53.160;7.026;2024-01-10T11:32:38;0.10;99.90
52471;DHT22;38382;53.160;7.026;2024-01-10T11:35:20;1.20;99.90
52471;DHT22;38382;53.160;7.026;2024-01-10T11:37:47;2.30;99.90
52471;DHT22;38382;53.160;7.026;2024-01-10T11:40:15;0.40;99.90
52471;DHT22;38382;53.160;7.026;2024-01-10T11:42:51;0.50;99.90
52471;DHT22;38382;53.160;7.026;2024-01-10T11:48:06;0.70;99.90
52471;DHT22;38382;53.160;7.026;2024-01-10T11:50:35;0.80;99.90
52471;DHT22;38382;53.160;7.026;2024-01-10T11:53:00;0.80;99.90
52471;DHT22;38382;53.160;7.026;2024-01-10T11:58:16;1.10;99.90
52471;DHT22;38382;53.160;7.026;2024-01-10T12:00:42;1.20;99.90
52471;DHT22;38382;53.160;7.026;2024-01-10T12:03:12;3.10;99.90
52471;DHT22;38382;53.160;7.026;2024-01-10T12:05:38;1.50;99.90
52471;DHT22;38382;53.160;7.026;2024-01-10T12:08:10;1.80;99.90
52471;DHT22;38382;53.160;7.026;2024-01-10T12:10:36;1.70;99.90
52471;DHT22;38382;53.160;7.026;2024-01-10T12:13:06;1.80;99.90
52471;DHT22;38382;53.160;7.026;2024-01-10T12:15:31;1.80;99.90
52471;DHT22;38382;53.160;7.026;2024-01-10T12:17:57;2.30;99.90
52471;DHT22;38382;53.160;7.026;2024-01-10T12:20:23;2.20;99.90
52471;DHT22;38382;53.160;7.026;2024-01-10T12:22:49;2.30;99.90
52471;DHT22;38382;53.160;7.026;2024-01-10T12:25:14;2.70;99.90
52471;DHT22;38382;53.160;7.026;2024-01-10T12:27:40;2.90;99.90
52471;DHT22;38382;53.160;7.026;2024-01-10T12:30:06;4.60;99.90
52471;DHT22;38382;53.160;7.026;2024-01-10T12:32:33;4.00;99.90
52471;DHT22;38382;53.160;7.026;2024-01-10T12:35:03;4.80;99.90
52471;DHT22;38382;53.160;7.026;2024-01-10T12:37:31;5.40;99.90
52471;DHT22;38382;53.160;7.026;2024-01-10T12:39:57;6.20;99.90
52471;DHT22;38382;53.160;7.026;2024-01-10T12:42:23;6.90;99.90
52471;DHT22;38382;53.160;7.026;2024-01-10T12:44:52;7.30;98.90
52471;DHT22;38382;53.160;7.026;2024-01-10T12:47:19;7.90;97.00
52471;DHT22;38382;53.160;7.026;2024-01-10T12:49:46;8.30;92.30
52471;DHT22;38382;53.160;7.026;2024-01-10T12:52:13;8.80;92.40
52471;DHT22;38382;53.160;7.026;2024-01-10T12:54:39;9.10;92.30
52471;DHT22;38382;53.160;7.026;2024-01-10T12:57:05;9.50;92.10
52471;DHT22;38382;53.160;7.026;2024-01-10T12:59:32;9.90;89.40
52471;DHT22;38382;53.160;7.026;2024-01-10T13:01:59;10.00;86.10
52471;DHT22;38382;53.160;7.026;2024-01-10T13:04:24;10.30;83.70
52471;DHT22;38382;53.160;7.026;2024-01-10T13:06:50;10.50;81.80
52471;DHT22;38382;53.160;7.026;2024-01-10T13:09:16;10.80;83.10
52471;DHT22;38382;53.160;7.026;2024-01-10T13:11:42;10.90;80.50
52471;DHT22;38382;53.160;7.026;2024-01-10T13:14:08;10.90;78.20
52471;DHT22;38382;53.160;7.026;2024-01-10T13:16:35;10.80;76.30
52471;DHT22;38382;53.160;7.026;2024-01-10T13:19:00;9.80;76.10
52471;DHT22;38382;53.160;7.026;2024-01-10T13:21:26;8.50;77.70
52471;DHT22;38382;53.160;7.026;2024-01-10T13:23:52;7.40;81.90
52471;DHT22;38382;53.160;7.026;2024-01-10T13:26:18;7.20;81.90
52471;DHT22;38382;53.160;7.026;2024-01-10T13:28:44;7.60;82.70
52471;DHT22;38382;53.160;7.026;2024-01-10T13:31:09;8.40;82.00
52471;DHT22;38382;53.160;7.026;2024-01-10T13:33:36;8.70;81.40
52471;DHT22;38382;53.160;7.026;2024-01-10T13:36:03;9.20;80.20
52471;DHT22;38382;53.160;7.026;2024-01-10T13:38:30;9.60;78.60
52471;DHT22;38382;53.160;7.026;2024-01-10T13:40:56;9.90;75.90
52471;DHT22;38382;53.160;7.026;2024-01-10T13:43:21;10.10;76.10
52471;DHT22;38382;53.160;7.026;2024-01-10T13:45:47;10.30;75.80
52471;DHT22;38382;53.160;7.026;2024-01-10T13:48:13;10.20;74.40
52471;DHT22;38382;53.160;7.026;2024-01-10T13:50:39;9.30;74.90
52471;DHT22;38382;53.160;7.026;2024-01-10T13:53:04;8.00;76.30
52471;DHT22;38382;53.160;7.026;2024-01-10T13:55:31;6.80;78.40
52471;DHT22;38382;53.160;7.026;2024-01-10T13:57:57;5.90;81.50
52471;DHT22;38382;53.160;7.026;2024-01-10T14:00:23;4.80;84.10
52471;DHT22;38382;53.160;7.026;2024-01-10T14:02:48;4.00;87.50
52471;DHT22;38382;53.160;7.026;2024-01-10T14:05:15;3.60;90.40
52471;DHT22;38382;53.160;7.026;2024-01-10T14:07:41;3.70;92.10
52471;DHT22;38382;53.160;7.026;2024-01-10T14:10:10;2.30;93.10
52471;DHT22;38382;53.160;7.026;2024-01-10T14:12:36;1.90;94.60
52471;DHT22;38382;53.160;7.026;2024-01-10T14:15:02;1.60;95.90
52471;DHT22;38382;53.160;7.026;2024-01-10T14:17:29;0.10;96.90
52471;DHT22;38382;53.160;7.026;2024-01-10T14:19:55;1.40;99.20
52471;DHT22;38382;53.160;7.026;2024-01-10T14:22:21;2.00;99.90
52471;DHT22;38382;53.160;7.026;2024-01-10T14:24:49;2.00;99.90
52471;DHT22;38382;53.160;7.026;2024-01-10T14:27:15;0.30;99.90
52471;DHT22;38382;53.160;7.026;2024-01-10T14:29:42;0.70;99.90
52471;DHT22;38382;53.160;7.026;2024-01-10T14:32:07;1.20;99.90
52471;DHT22;38382;53.160;7.026;2024-01-10T14:34:33;0.30;99.90
52471;DHT22;38382;53.160;7.026;2024-01-10T14:36:59;-0.30;99.90
52471;DHT22;38382;53.160;7.026;2024-01-10T14:39:24;-0.30;99.90
52471;DHT22;38382;53.160;7.026;2024-01-10T14:41:50;-0.40;99.90
52471;DHT22;38382;53.160;7.026;2024-01-10T14:44:16;-0.50;99.90
52471;DHT22;38382;53.160;7.026;2024-01-10T14:46:42;-0.70;99.90
52471;DHT22;38382;53.160;7.026;2024-01-10T14:49:08;-0.70;99.90
52471;DHT22;38382;53.160;7.026;2024-01-10T14:51:34;-0.80;99.90
52471;DHT22;38382;53.160;7.026;2024-01-10T14:54:00;0.20;99.90
52471;DHT22;38382;53.160;7.026;2024-01-10T14:56:25;-0.90;99.90
52471;DHT22;38382;53.160;7.026;2024-01-10T14:58:51;-1.00;99.90
52471;DHT22;38382;53.160;7.026;2024-01-10T15:01:17;0.20;99.90
52471;DHT22;38382;53.160;7.026;2024-01-10T15:03:43;0.60;99.90
52471;DHT22;38382;53.160;7.026;2024-01-10T15:06:09;-1.20;99.90
52471;DHT22;38382;53.160;7.026;2024-01-10T15:08:35;-1.30;99.90
52471;DHT22;38382;53.160;7.026;2024-01-10T15:11:02;-1.10;99.90
52471;DHT22;38382;53.160;7.026;2024-01-10T15:13:27;-0.10;99.90
52471;DHT22;38382;53.160;7.026;2024-01-10T15:15:53;-1.50;99.90
52471;DHT22;38382;53.160;7.026;2024-01-10T15:18:20;-1.60;99.90
52471;DHT22;38382;53.160;7.026;2024-01-10T15:20:46;-1.60;99.90
52471;DHT22;38382;53.160;7.026;2024-01-10T15:23:12;-1.40;99.90
52471;DHT22;38382;53.160;7.026;2024-01-10T15:25:38;-1.80;99.90
52471;DHT22;38382;53.160;7.026;2024-01-10T15:28:04;-1.90;99.90
52471;DHT22;38382;53.160;7.026;2024-01-10T15:30:30;-1.90;99.90
52471;DHT22;38382;53.160;7.026;2024-01-10T15:32:58;-2.00;99.90
52471;DHT22;38382;53.160;7.026;2024-01-10T15:35:24;-2.00;99.90
52471;DHT22;38382;53.160;7.026;2024-01-10T15:37:50;-2.00;99.90
52471;DHT22;38382;53.160;7.026;2024-01-10T15:40:16;-0.90;99.90
52471;DHT22;38382;53.160;7.026;2024-01-10T15:42:42;-2.20;99.90
52471;DHT22;38382;53.160;7.026;2024-01-10T15:45:11;-2.20;99.90
52471;DHT22;38382;53.160;7.026;2024-01-10T15:47:38;-2.30;99.90
52471;DHT22;38382;53.160;7.026;2024-01-10T15:50:04;-2.40;99.90
52471;DHT22;38382;53.160;7.026;2024-01-10T15:52:30;-2.40;99.90
52471;DHT22;38382;53.160;7.026;2024-01-10T15:54:57;-2.50;99.90
52471;DHT22;38382;53.160;7.026;2024-01-10T15:57:24;-2.50;99.90
52471;DHT22;38382;53.160;7.026;2024-01-10T15:59:50;-2.60;99.90
52471;DHT22;38382;53.160;7.026;2024-01-10T16:02:17;-0.70;99.90
52471;DHT22;38382;53.160;7.026;2024-01-10T16:04:42;-1.60;99.90
52471;DHT22;38382;53.160;7.026;2024-01-10T16:07:08;-2.70;99.90
52471;DHT22;38382;53.160;7.026;2024-01-10T16:09:37;-1.60;99.90
52471;DHT22;38382;53.160;7.026;2024-01-10T16:12:04;-2.80;99.90
52471;DHT22;38382;53.160;7.026;2024-01-10T16:14:30;-2.90;99.90
52471;DHT22;38382;53.160;7.026;2024-01-10T16:16:57;-2.50;99.90
52471;DHT22;38382;53.160;7.026;2024-01-10T16:19:23;-2.60;99.90
52471;DHT22;38382;53.160;7.026;2024-01-10T16:21:48;-3.00;99.90
52471;DHT22;38382;53.160;7.026;2024-01-10T16:24:14;-1.70;99.90
52471;DHT22;38382;53.160;7.026;2024-01-10T16:26:40;-3.00;99.90
52471;DHT22;38382;53.160;7.026;2024-01-10T16:29:05;-1.70;99.90
52471;DHT22;38382;53.160;7.026;2024-01-10T16:31:32;-3.20;99.90
52471;DHT22;38382;53.160;7.026;2024-01-10T16:33:57;-3.20;99.90